createdAt,value
2017-12-21T00:00:22.943Z,19.90
2017-12-21T00:02:50.584Z,17.70
2017-12-21T00:05:17.898Z,18.70
2017-12-21T00:07:45.325Z,16.00
2017-12-21T00:10:12.959Z,17.00
2017-12-21T00:12:40.270Z,17.23
2017-12-21T00:15:07.731Z,16.57
2017-12-21T00:17:35.135Z,16.20
2017-12-21T00:20:02.766Z,14.90
2017-12-21T00:22:36.006Z,16.10
2017-12-21T00:25:03.623Z,16.00
2017-12-21T00:27:30.945Z,14.50
2017-12-21T00:29:58.395Z,15.33
2017-12-21T00:32:25.706Z,15.40
2017-12-21T00:34:53.351Z,14.00
2017-12-21T00:37:20.703Z,14.00
2017-12-21T00:39:48.183Z,14.13
2017-12-21T00:42:15.831Z,14.07
2017-12-21T00:44:43.214Z,12.73
2017-12-21T00:47:10.888Z,12.87
2017-12-21T00:49:38.507Z,13.27
2017-12-21T00:52:05.878Z,11.83
2017-12-21T00:54:33.519Z,12.90
2017-12-21T00:57:00.858Z,11.43
2017-12-21T00:59:28.286Z,12.17
2017-12-21T01:01:55.604Z,12.30
2017-12-21T01:04:23.251Z,13.17
2017-12-21T01:06:50.598Z,12.37
2017-12-21T01:09:17.950Z,11.13
2017-12-21T01:11:45.363Z,10.50
2017-12-21T01:14:12.688Z,11.03
2017-12-21T01:16:40.467Z,11.27
2017-12-21T01:19:08.127Z,11.40
2017-12-21T01:21:35.758Z,10.57
2017-12-21T01:24:03.086Z,11.60
2017-12-21T01:26:30.703Z,10.60
2017-12-21T01:28:58.207Z,11.33
2017-12-21T01:31:25.524Z,10.37
2017-12-21T01:33:52.903Z,11.77
2017-12-21T01:36:20.603Z,11.27
2017-12-21T01:38:47.918Z,12.37
2017-12-21T01:41:15.663Z,12.50
2017-12-21T01:43:42.988Z,11.70
2017-12-21T01:46:10.682Z,10.60
2017-12-21T01:48:37.998Z,11.23
2017-12-21T01:51:05.661Z,12.43
2017-12-21T01:53:33.359Z,12.07
2017-12-21T01:56:00.700Z,11.00
2017-12-21T01:58:28.329Z,12.17
2017-12-21T02:00:55.704Z,11.30
2017-12-21T02:03:23.367Z,11.40
2017-12-21T02:05:50.682Z,10.37
2017-12-21T02:08:18.406Z,10.40
2017-12-21T02:10:45.714Z,9.70
2017-12-21T02:13:13.068Z,9.93
2017-12-21T02:15:40.436Z,10.03
2017-12-21T02:18:08.082Z,9.83
2017-12-21T02:20:35.423Z,11.37
2017-12-21T02:23:02.790Z,9.20
2017-12-21T02:25:30.098Z,9.97
2017-12-21T02:27:57.410Z,9.57
2017-12-21T02:30:25.244Z,9.10
2017-12-21T02:32:52.658Z,9.33
2017-12-21T02:35:20.346Z,9.10
2017-12-21T02:37:48.052Z,9.40
2017-12-21T02:40:15.383Z,8.27
2017-12-21T02:42:43.085Z,8.07
2017-12-21T02:45:10.732Z,8.03
2017-12-21T02:47:38.082Z,7.90
2017-12-21T02:50:05.441Z,7.90
2017-12-21T02:52:33.114Z,7.90
2017-12-21T02:55:00.475Z,8.37
2017-12-21T02:57:28.103Z,8.40
2017-12-21T02:59:55.550Z,8.47
2017-12-21T03:02:23.260Z,7.33
2017-12-21T03:04:50.891Z,7.70
2017-12-21T03:07:18.239Z,7.20
2017-12-21T03:09:45.626Z,6.23
2017-12-21T03:12:13.260Z,6.47
2017-12-21T03:14:40.618Z,7.30
2017-12-21T03:17:07.926Z,6.90
2017-12-21T03:19:35.238Z,7.20
2017-12-21T03:22:02.923Z,7.43
2017-12-21T03:24:30.639Z,6.60
2017-12-21T03:26:58.332Z,6.87
2017-12-21T03:29:25.688Z,7.50
2017-12-21T03:31:53.011Z,6.63
2017-12-21T03:34:20.387Z,7.97
2017-12-21T03:36:48.082Z,7.90
2017-12-21T03:39:15.415Z,7.60
2017-12-21T03:41:43.059Z,7.00
2017-12-21T03:44:10.419Z,7.37
2017-12-21T03:46:37.738Z,6.90
2017-12-21T03:49:05.427Z,6.90
2017-12-21T03:51:32.793Z,7.90
2017-12-21T03:54:00.460Z,8.07
2017-12-21T03:56:27.777Z,7.50
2017-12-21T03:58:55.501Z,7.40
2017-12-21T04:01:23.116Z,7.13
2017-12-21T04:03:50.846Z,8.27
2017-12-21T04:06:18.204Z,7.60
2017-12-21T04:08:46.108Z,8.63
2017-12-21T04:11:13.419Z,8.27
2017-12-21T04:13:41.359Z,8.00
2017-12-21T04:16:09.185Z,8.63
2017-12-21T04:18:37.043Z,8.30
2017-12-21T04:21:04.979Z,8.07
2017-12-21T04:23:32.281Z,8.53
2017-12-21T04:25:59.599Z,9.20
2017-12-21T04:28:27.553Z,8.63
2017-12-21T04:30:54.863Z,9.40
2017-12-21T04:33:22.172Z,9.30
2017-12-21T04:35:50.192Z,9.30
2017-12-21T04:38:18.038Z,9.30
2017-12-21T04:40:45.963Z,9.00
2017-12-21T04:43:13.285Z,10.97
2017-12-21T04:45:40.927Z,9.83
2017-12-21T04:48:08.317Z,9.73
2017-12-21T04:50:35.943Z,10.27
2017-12-21T04:53:03.267Z,9.73
2017-12-21T04:55:31.019Z,9.63
2017-12-21T04:57:58.359Z,9.10
2017-12-21T05:00:25.728Z,9.80
2017-12-21T05:02:53.046Z,10.80
2017-12-21T05:05:20.734Z,9.60
2017-12-21T05:07:48.095Z,9.20
2017-12-21T05:10:15.411Z,9.50
2017-12-21T05:12:43.063Z,9.53
2017-12-21T05:15:10.428Z,8.03
2017-12-21T05:17:37.897Z,9.57
2017-12-21T05:22:42.194Z,8.60
2017-12-21T05:25:09.878Z,8.40
2017-12-21T05:27:37.238Z,8.23
2017-12-21T05:30:04.738Z,8.30
2017-12-21T05:32:32.111Z,9.10
2017-12-21T05:34:59.779Z,9.73
2017-12-21T05:37:27.090Z,8.43
2017-12-21T05:39:54.466Z,7.63
2017-12-21T05:42:22.158Z,9.00
2017-12-21T05:44:49.476Z,9.40
2017-12-21T05:47:16.835Z,8.33
2017-12-21T05:49:44.543Z,8.07
2017-12-21T05:52:11.861Z,8.53
2017-12-21T05:54:39.394Z,8.33
2017-12-21T05:57:06.719Z,9.10
2017-12-21T05:59:34.358Z,8.40
2017-12-21T06:02:01.707Z,8.90
2017-12-21T06:04:29.403Z,9.20
2017-12-21T06:06:56.831Z,9.07
2017-12-21T06:09:24.211Z,11.03
2017-12-21T06:11:51.959Z,8.80
2017-12-21T06:14:19.282Z,7.77
2017-12-21T06:16:47.105Z,8.70
2017-12-21T06:19:14.467Z,9.30
2017-12-21T06:21:41.842Z,8.50
2017-12-21T06:24:09.163Z,7.90
2017-12-21T06:26:36.571Z,8.20
2017-12-21T06:29:04.254Z,8.20
2017-12-21T06:31:31.566Z,8.93
2017-12-21T06:33:59.083Z,8.37
2017-12-21T06:36:26.750Z,8.10
2017-12-21T06:38:54.386Z,7.40
2017-12-21T06:41:21.782Z,8.23
2017-12-21T06:43:49.422Z,7.60
2017-12-21T06:46:17.090Z,7.30
2017-12-21T06:48:44.728Z,7.73
2017-12-21T06:51:12.034Z,8.03
2017-12-21T06:53:39.419Z,7.37
2017-12-21T06:56:06.779Z,7.00
2017-12-21T06:58:34.582Z,7.40
2017-12-21T07:01:02.227Z,7.00
2017-12-21T07:03:29.566Z,7.17
2017-12-21T07:05:56.883Z,7.07
2017-12-21T07:08:24.189Z,6.80
2017-12-21T07:10:51.526Z,7.47
2017-12-21T07:13:18.835Z,7.27
2017-12-21T07:15:46.143Z,6.80
2017-12-21T07:18:13.616Z,7.13
2017-12-21T07:20:41.251Z,7.00
2017-12-21T07:23:08.577Z,6.80
2017-12-21T07:25:35.959Z,7.90
2017-12-21T07:28:03.267Z,7.77
2017-12-21T07:30:30.903Z,8.20
2017-12-21T07:32:58.590Z,7.40
2017-12-21T07:35:26.237Z,8.10
2017-12-21T07:37:53.714Z,7.20
2017-12-21T07:40:21.077Z,8.67
2017-12-21T07:42:48.400Z,8.70
2017-12-21T07:45:16.051Z,8.10
2017-12-21T07:47:43.751Z,8.80
2017-12-21T07:50:11.675Z,9.37
2017-12-21T07:52:39.043Z,9.73
2017-12-21T07:55:06.724Z,9.30
2017-12-21T07:57:34.050Z,9.33
2017-12-21T08:00:02.293Z,8.73
2017-12-21T08:02:29.683Z,9.80
2017-12-21T08:04:57.203Z,9.80
2017-12-21T08:07:24.513Z,9.73
2017-12-21T08:09:51.912Z,10.30
2017-12-21T08:12:19.284Z,9.20
2017-12-21T08:14:46.603Z,9.33
2017-12-21T08:17:13.967Z,9.23
2017-12-21T08:19:41.285Z,8.50
2017-12-21T08:22:08.638Z,7.90
2017-12-21T08:24:36.078Z,9.00
2017-12-21T08:30:01.483Z,8.67
2017-12-21T08:32:28.972Z,9.13
2017-12-21T08:34:56.307Z,9.27
2017-12-21T08:37:23.662Z,9.53
2017-12-21T08:39:51.036Z,10.43
2017-12-21T08:42:18.675Z,9.50
2017-12-21T08:44:46.043Z,10.13
2017-12-21T08:47:13.620Z,9.57
2017-12-21T08:49:41.258Z,10.13
2017-12-21T08:52:08.595Z,9.87
2017-12-21T08:54:36.274Z,10.13
2017-12-21T08:57:03.587Z,10.33
2017-12-21T08:59:31.030Z,9.33
2017-12-21T09:01:59.261Z,10.23
2017-12-21T09:04:28.033Z,9.53
2017-12-21T09:06:57.169Z,9.70
2017-12-21T09:09:26.942Z,8.93
2017-12-21T09:11:55.222Z,8.87
2017-12-21T09:14:24.455Z,8.10
2017-12-21T09:16:51.995Z,8.33
2017-12-21T09:19:19.307Z,10.67
2017-12-21T09:21:47.018Z,9.27
2017-12-21T09:24:14.689Z,8.23
2017-12-21T09:26:42.320Z,8.70
2017-12-21T09:29:09.704Z,8.73
2017-12-21T09:31:37.335Z,8.77
2017-12-21T09:34:04.659Z,7.30
2017-12-21T09:36:31.992Z,8.10
2017-12-21T09:38:59.604Z,8.80
2017-12-21T09:41:26.955Z,7.60
2017-12-21T09:43:54.434Z,8.80
2017-12-21T09:46:21.743Z,8.00
2017-12-21T09:48:49.166Z,7.30
2017-12-21T09:51:16.782Z,8.27
2017-12-21T09:53:44.447Z,7.20
2017-12-21T09:56:11.784Z,7.43
2017-12-21T09:58:39.500Z,7.67
2017-12-21T10:01:07.166Z,6.67
2017-12-21T10:03:34.803Z,6.77
2017-12-21T10:06:02.178Z,6.90
2017-12-21T10:08:29.703Z,7.23
2017-12-21T10:10:57.011Z,7.90
2017-12-21T10:13:24.354Z,7.37
2017-12-21T10:15:51.670Z,8.67
2017-12-21T10:18:18.978Z,7.40
2017-12-21T10:20:46.311Z,8.00
2017-12-21T10:23:13.934Z,7.50
2017-12-21T10:25:41.290Z,7.57
2017-12-21T10:28:08.626Z,7.30
2017-12-21T10:30:36.114Z,7.97
2017-12-21T10:33:03.491Z,7.23
2017-12-21T10:35:31.114Z,7.70
2017-12-21T10:37:58.499Z,7.70
2017-12-21T10:40:27.079Z,7.27
2017-12-21T10:42:54.570Z,7.50
2017-12-21T10:45:21.910Z,7.00
2017-12-21T10:47:49.470Z,6.83
2017-12-21T10:50:16.819Z,6.97
2017-12-21T10:52:44.441Z,7.30
2017-12-21T10:55:11.742Z,7.50
2017-12-21T10:57:39.094Z,8.13
2017-12-21T11:00:06.416Z,8.53
2017-12-21T11:02:33.879Z,7.70
2017-12-21T11:05:01.580Z,7.93
2017-12-21T11:07:28.885Z,7.70
2017-12-21T11:09:57.385Z,8.70
2017-12-21T11:12:25.048Z,7.60
2017-12-21T11:14:52.742Z,8.13
2017-12-21T11:17:20.355Z,7.77
2017-12-21T11:19:48.023Z,7.50
2017-12-21T11:22:15.662Z,8.10
2017-12-21T11:24:42.998Z,7.73
2017-12-21T11:27:10.723Z,7.43
2017-12-21T11:29:38.342Z,8.07
2017-12-21T11:32:05.654Z,8.13
2017-12-21T11:34:33.042Z,8.20
2017-12-21T11:37:00.707Z,7.50
2017-12-21T11:39:28.375Z,6.90
2017-12-21T11:41:55.712Z,8.37
2017-12-21T11:44:23.440Z,8.20
2017-12-21T11:46:51.055Z,8.53
2017-12-21T11:49:18.395Z,8.07
2017-12-21T11:51:46.097Z,7.97
2017-12-21T11:54:13.783Z,8.40
2017-12-21T11:56:41.102Z,7.83
2017-12-21T11:59:08.471Z,7.33
2017-12-21T12:01:35.783Z,7.83
2017-12-21T12:04:03.496Z,8.80
2017-12-21T12:06:31.119Z,8.07
2017-12-21T12:08:58.777Z,8.30
2017-12-21T12:11:26.244Z,8.20
2017-12-21T12:13:53.546Z,8.63
2017-12-21T12:16:20.870Z,9.37
2017-12-21T12:18:48.535Z,8.73
2017-12-21T12:21:16.161Z,8.15
2017-12-21T12:23:43.826Z,8.85
2017-12-21T12:26:11.231Z,8.63
2017-12-21T12:28:38.847Z,8.33
2017-12-21T12:31:06.167Z,8.47
2017-12-21T12:33:33.907Z,7.90
2017-12-21T12:36:01.518Z,7.35
2017-12-21T12:38:28.901Z,8.57
2017-12-21T12:40:56.614Z,8.50
2017-12-21T12:43:24.302Z,8.33
2017-12-21T12:45:51.971Z,8.00
2017-12-21T12:48:19.340Z,8.00
2017-12-21T12:50:47.102Z,8.73
2017-12-21T12:53:14.418Z,9.20
2017-12-21T12:55:42.086Z,7.40
2017-12-21T12:58:09.400Z,8.70
2017-12-21T13:00:37.013Z,9.23
2017-12-21T13:03:04.375Z,9.03
2017-12-21T13:05:31.695Z,8.60
2017-12-21T13:07:59.387Z,8.47
2017-12-21T13:10:27.116Z,8.00
2017-12-21T13:12:54.442Z,7.97
2017-12-21T13:15:22.602Z,8.10
2017-12-21T13:17:50.117Z,7.37
2017-12-21T13:20:17.826Z,7.90
2017-12-21T13:22:45.462Z,8.77
2017-12-21T13:25:12.842Z,7.37
2017-12-21T13:27:40.483Z,8.50
2017-12-21T13:30:07.819Z,8.40
2017-12-21T13:32:35.175Z,8.10
2017-12-21T13:35:02.859Z,8.03
2017-12-21T13:37:30.158Z,8.77
2017-12-21T13:39:57.518Z,8.40
2017-12-21T13:42:25.225Z,8.37
2017-12-21T13:44:52.525Z,8.33
2017-12-21T13:47:19.872Z,8.90
2017-12-21T13:49:47.186Z,8.10
2017-12-21T13:52:14.526Z,7.40
2017-12-21T13:54:42.218Z,8.53
2017-12-21T13:57:09.898Z,7.77
2017-12-21T13:59:37.539Z,9.40
2017-12-21T14:02:04.881Z,8.40
2017-12-21T14:04:32.230Z,8.87
2017-12-21T14:06:59.542Z,8.23
2017-12-21T14:09:26.854Z,8.53
2017-12-21T14:11:54.522Z,9.17
2017-12-21T14:14:22.161Z,8.37
2017-12-21T14:16:49.535Z,9.00
2017-12-21T14:19:17.223Z,8.80
2017-12-21T14:21:44.531Z,8.90
2017-12-21T14:24:11.842Z,9.00
2017-12-21T14:26:39.199Z,7.90
2017-12-21T14:29:06.507Z,9.53
2017-12-21T14:31:33.874Z,8.20
2017-12-21T14:34:01.550Z,8.30
2017-12-21T14:36:29.167Z,8.40
2017-12-21T14:38:56.474Z,7.97
2017-12-21T14:41:23.823Z,7.87
2017-12-21T14:43:51.134Z,8.67
2017-12-21T14:46:18.444Z,9.30
2017-12-21T14:48:45.775Z,8.47
2017-12-21T14:51:13.450Z,8.63
2017-12-21T14:53:40.774Z,6.97
2017-12-21T14:56:08.420Z,8.67
2017-12-21T14:58:35.799Z,9.27
2017-12-21T15:01:03.773Z,8.73
2017-12-21T15:03:31.439Z,8.97
2017-12-21T15:05:59.139Z,7.80
2017-12-21T15:08:26.558Z,8.43
2017-12-21T15:10:54.235Z,8.37
2017-12-21T15:13:21.584Z,7.70
2017-12-21T15:15:49.287Z,8.27
2017-12-21T15:18:16.970Z,8.07
2017-12-21T15:20:44.324Z,8.33
2017-12-21T15:23:11.690Z,8.50
2017-12-21T15:25:39.351Z,7.87
2017-12-21T15:28:07.032Z,9.20
2017-12-21T15:30:34.368Z,9.07
2017-12-21T15:33:02.012Z,9.10
2017-12-21T15:35:29.358Z,8.23
2017-12-21T15:37:56.666Z,9.73
2017-12-21T15:40:23.978Z,9.27
2017-12-21T15:42:51.394Z,9.17
2017-12-21T15:45:18.693Z,10.30
2017-12-21T15:47:46.025Z,10.20
2017-12-21T15:50:13.370Z,9.63
2017-12-21T15:52:41.047Z,9.60
2017-12-21T15:55:08.410Z,9.27
2017-12-21T15:57:36.128Z,8.20
2017-12-21T16:00:03.434Z,8.87
2017-12-21T16:02:30.756Z,8.73
2017-12-21T16:04:58.479Z,7.37
2017-12-21T16:07:25.791Z,8.10
2017-12-21T16:09:53.118Z,9.03
2017-12-21T16:12:20.568Z,8.60
2017-12-21T16:14:47.870Z,10.00
2017-12-21T16:17:15.509Z,9.40
2017-12-21T16:19:42.865Z,10.63
2017-12-21T16:22:10.236Z,9.50
2017-12-21T16:24:37.545Z,9.30
2017-12-21T16:27:04.929Z,9.63
2017-12-21T16:29:32.451Z,9.10
2017-12-21T16:31:59.771Z,9.60
2017-12-21T16:34:27.470Z,8.83
2017-12-21T16:36:54.780Z,8.50
2017-12-21T16:39:22.418Z,9.10
2017-12-21T16:41:50.132Z,9.73
2017-12-21T16:44:18.637Z,8.50
2017-12-21T16:46:46.242Z,8.13
2017-12-21T16:49:13.599Z,7.90
2017-12-21T16:51:41.246Z,8.30
2017-12-21T16:54:08.558Z,9.20
2017-12-21T16:56:35.908Z,8.37
2017-12-21T16:59:03.714Z,8.60
2017-12-21T17:01:31.070Z,8.30
2017-12-21T17:03:58.395Z,9.17
2017-12-21T17:06:27.519Z,7.90
2017-12-21T17:08:55.276Z,7.40
2017-12-21T17:11:25.098Z,8.27
2017-12-21T17:13:52.426Z,9.70
2017-12-21T17:16:19.847Z,9.47
2017-12-21T17:18:49.307Z,9.33
2017-12-21T17:21:17.154Z,9.20
2017-12-21T17:23:44.852Z,8.83
2017-12-21T17:26:12.210Z,9.10
2017-12-21T17:28:39.514Z,8.47
2017-12-21T17:31:06.858Z,8.43
2017-12-21T17:33:34.336Z,9.40
2017-12-21T17:36:01.739Z,9.70
2017-12-21T17:38:29.080Z,9.20
2017-12-21T17:40:56.463Z,10.37
2017-12-21T17:43:24.089Z,9.97
2017-12-21T17:45:51.806Z,10.83
2017-12-21T17:48:19.147Z,11.57
2017-12-21T17:50:46.805Z,11.20
2017-12-21T17:53:14.482Z,11.77
2017-12-21T17:55:41.802Z,11.83
2017-12-21T17:58:09.451Z,10.73
2017-12-21T18:00:36.823Z,11.70
2017-12-21T18:03:04.846Z,10.50
2017-12-21T18:05:32.233Z,11.43
2017-12-21T18:08:00.581Z,10.77
2017-12-21T18:10:27.979Z,9.30
2017-12-21T18:12:55.610Z,9.37
2017-12-21T18:15:23.298Z,9.20
2017-12-21T18:17:51.059Z,9.07
2017-12-21T18:20:18.518Z,9.30
2017-12-21T18:22:46.163Z,9.40
2017-12-21T18:25:13.605Z,9.87
2017-12-21T18:27:41.442Z,9.40
2017-12-21T18:30:08.768Z,8.40
2017-12-21T18:32:36.110Z,9.20
2017-12-21T18:35:03.767Z,8.87
2017-12-21T18:37:31.092Z,8.47
2017-12-21T18:39:58.810Z,9.20
2017-12-21T18:42:26.427Z,9.47
2017-12-21T18:44:54.203Z,10.23
2017-12-21T18:47:21.542Z,9.10
2017-12-21T18:49:48.863Z,9.87
2017-12-21T18:52:16.372Z,8.43
2017-12-21T18:54:43.736Z,9.67
2017-12-21T18:57:11.178Z,9.10
2017-12-21T18:59:38.510Z,8.27
2017-12-21T19:02:06.214Z,8.77
2017-12-21T19:04:33.590Z,9.93
2017-12-21T19:07:00.906Z,8.50
2017-12-21T19:09:28.270Z,7.80
2017-12-21T19:11:56.394Z,8.40
2017-12-21T19:14:23.736Z,8.50
2017-12-21T19:16:51.073Z,10.00
2017-12-21T19:19:18.708Z,9.10
2017-12-21T19:21:46.046Z,9.20
2017-12-21T19:24:13.371Z,9.10
2017-12-21T19:26:41.091Z,8.77
2017-12-21T19:29:08.454Z,9.90
2017-12-21T19:31:35.763Z,10.73
2017-12-21T19:34:03.091Z,10.00
2017-12-21T19:36:30.502Z,10.07
2017-12-21T19:38:57.816Z,10.80
2017-12-21T19:41:25.234Z,9.30
2017-12-21T19:43:52.899Z,9.87
2017-12-21T19:46:20.303Z,9.87
2017-12-21T19:48:47.974Z,9.80
2017-12-21T19:51:15.713Z,8.30
2017-12-21T19:53:43.031Z,10.47
2017-12-21T19:56:10.684Z,11.30
2017-12-21T19:58:38.349Z,9.30
2017-12-21T20:01:05.974Z,9.27
2017-12-21T20:03:33.706Z,8.30
2017-12-21T20:06:01.443Z,9.70
2017-12-21T20:08:29.086Z,8.20
2017-12-21T20:10:56.384Z,8.80
2017-12-21T20:13:23.861Z,8.57
2017-12-21T20:15:51.539Z,8.87
2017-12-21T20:18:18.856Z,8.67
2017-12-21T20:20:46.242Z,8.27
2017-12-21T20:23:13.552Z,8.80
2017-12-21T20:25:40.873Z,8.60
2017-12-21T20:28:08.212Z,9.40
2017-12-21T20:30:35.525Z,9.60
2017-12-21T20:33:02.827Z,9.73
2017-12-21T20:35:30.362Z,10.20
2017-12-21T20:37:58.137Z,9.83
2017-12-21T20:40:25.688Z,11.23
2017-12-21T20:42:53.051Z,10.50
2017-12-21T20:45:20.502Z,10.47
2017-12-21T20:47:48.219Z,10.80
2017-12-21T20:50:15.605Z,11.20
2017-12-21T20:52:42.918Z,10.00
2017-12-21T20:55:10.314Z,10.10
2017-12-21T20:57:37.754Z,11.40
2017-12-21T21:00:05.070Z,11.97
2017-12-21T21:02:32.593Z,12.13
2017-12-21T21:04:59.973Z,11.60
2017-12-21T21:07:27.303Z,13.10
2017-12-21T21:09:55.011Z,12.13
2017-12-21T21:12:22.328Z,11.37
2017-12-21T21:14:49.692Z,11.03
2017-12-21T21:17:17.048Z,11.87
2017-12-21T21:19:44.375Z,11.77
2017-12-21T21:22:11.858Z,12.87
2017-12-21T21:24:39.234Z,12.97
2017-12-21T21:27:06.938Z,13.00
2017-12-21T21:29:34.631Z,13.33
2017-12-21T21:32:02.022Z,13.93
2017-12-21T21:34:29.551Z,14.77
2017-12-21T21:36:56.991Z,15.17
2017-12-21T21:39:24.416Z,14.20
2017-12-21T21:41:51.755Z,14.87
2017-12-21T21:44:19.069Z,15.77
2017-12-21T21:46:46.434Z,15.50
2017-12-21T21:49:14.097Z,16.10
2017-12-21T21:51:41.446Z,16.10
2017-12-21T21:54:08.820Z,13.97
2017-12-21T21:56:36.173Z,14.50
2017-12-21T21:59:03.809Z,15.73
2017-12-21T22:01:31.181Z,16.07
2017-12-21T22:03:58.486Z,16.80
2017-12-21T22:06:25.806Z,15.90
2017-12-21T22:08:53.469Z,16.67
2017-12-21T22:11:21.089Z,17.40
2017-12-21T22:13:48.530Z,16.00
2017-12-21T22:16:15.927Z,18.10
2017-12-21T22:18:43.566Z,17.70
2017-12-21T22:21:10.928Z,18.70
2017-12-21T22:23:38.251Z,17.20
2017-12-21T22:26:06.031Z,18.03
2017-12-21T22:28:33.394Z,17.70
2017-12-21T22:31:00.723Z,18.70
2017-12-21T22:33:28.127Z,16.70
2017-12-21T22:35:55.964Z,18.50
2017-12-21T22:38:23.326Z,17.87
2017-12-21T22:40:50.642Z,17.53
2017-12-21T22:43:18.023Z,18.00
2017-12-21T22:45:45.398Z,18.13
2017-12-21T22:48:12.714Z,17.00
2017-12-21T22:50:40.602Z,18.60
2017-12-21T22:53:08.275Z,18.20
2017-12-21T22:55:35.586Z,17.50
2017-12-21T22:58:03.051Z,15.57
2017-12-21T23:00:30.744Z,16.67
2017-12-21T23:02:58.060Z,18.03
2017-12-21T23:05:25.398Z,16.63
2017-12-21T23:07:52.742Z,16.87
2017-12-21T23:10:20.402Z,15.70
2017-12-21T23:12:48.050Z,16.57
2017-12-21T23:15:15.411Z,16.53
2017-12-21T23:17:43.083Z,16.20
2017-12-21T23:20:10.514Z,15.77
2017-12-21T23:22:37.821Z,14.67
2017-12-21T23:25:05.173Z,14.90
2017-12-21T23:27:32.486Z,15.87
2017-12-21T23:30:00.127Z,16.23
2017-12-21T23:32:27.490Z,16.17
2017-12-21T23:34:54.806Z,17.80
2017-12-21T23:37:22.204Z,15.70
2017-12-21T23:39:49.909Z,15.50
2017-12-21T23:42:17.226Z,12.87
2017-12-21T23:44:44.939Z,16.03
2017-12-21T23:47:12.583Z,16.90
2017-12-21T23:49:39.907Z,16.23
2017-12-21T23:52:07.226Z,15.00
2017-12-21T23:54:34.682Z,15.30
2017-12-21T23:57:02.062Z,15.90
2017-12-21T23:59:29.438Z,14.87
